createdAt,value
2023-03-25T00:01:17.092Z,0.87
2023-03-25T00:04:05.342Z,0.90
2023-03-25T00:06:52.272Z,1.10
2023-03-25T00:09:39.604Z,0.57
2023-03-25T00:12:28.244Z,0.93
2023-03-25T00:15:16.541Z,0.97
2023-03-25T00:18:04.255Z,0.87
2023-03-25T00:20:54.697Z,0.57
2023-03-25T00:23:43.307Z,0.53
2023-03-25T00:26:32.351Z,0.50
2023-03-25T00:29:21.145Z,0.63
2023-03-25T00:32:08.459Z,0.67
2023-03-25T00:34:55.899Z,0.87
2023-03-25T00:37:43.738Z,0.63
2023-03-25T00:40:37.317Z,0.80
2023-03-25T00:43:24.376Z,0.70
2023-03-25T00:46:13.080Z,1.00
2023-03-25T00:49:01.961Z,0.47
2023-03-25T00:51:53.112Z,0.90
2023-03-25T00:54:41.300Z,1.40
2023-03-25T00:57:28.279Z,0.93
2023-03-25T01:00:18.616Z,1.17
2023-03-25T01:03:07.361Z,0.73
2023-03-25T01:05:56.173Z,0.53
2023-03-25T01:08:44.500Z,1.00
2023-03-25T01:11:34.966Z,0.70
2023-03-25T01:14:24.449Z,0.70
2023-03-25T01:17:12.125Z,0.67
2023-03-25T01:20:00.845Z,0.80
2023-03-25T01:22:48.237Z,1.20
2023-03-25T01:25:35.522Z,1.03
2023-03-25T01:28:22.882Z,0.90
2023-03-25T01:31:12.376Z,0.97
2023-03-25T01:34:00.542Z,0.60
2023-03-25T01:36:49.621Z,1.00
2023-03-25T01:39:37.660Z,0.90
2023-03-25T01:42:24.927Z,0.90
2023-03-25T01:45:21.021Z,0.90
2023-03-25T01:48:13.702Z,1.10
2023-03-25T01:51:05.052Z,0.90
2023-03-25T01:53:54.401Z,0.93
2023-03-25T01:56:43.304Z,0.83
2023-03-25T01:59:31.158Z,0.70
2023-03-25T02:02:19.794Z,0.97
2023-03-25T02:05:11.023Z,0.90
2023-03-25T02:07:59.339Z,1.27
2023-03-25T02:10:49.270Z,1.53
2023-03-25T02:13:38.193Z,0.70
2023-03-25T02:16:34.005Z,0.70
2023-03-25T02:19:57.276Z,0.60
2023-03-25T02:23:45.203Z,0.50
2023-03-25T02:27:30.627Z,0.40
2023-03-25T02:31:08.151Z,0.77
2023-03-25T02:34:18.611Z,0.73
2023-03-25T02:37:29.077Z,0.40
2023-03-25T02:40:24.288Z,0.50
2023-03-25T02:43:17.168Z,0.43
2023-03-25T02:46:10.099Z,0.30
2023-03-25T02:49:02.631Z,0.67
2023-03-25T02:51:57.837Z,0.40
2023-03-25T02:54:47.925Z,0.80
2023-03-25T02:57:42.483Z,0.50
2023-03-25T03:00:31.999Z,0.47
2023-03-25T03:03:23.777Z,0.60
2023-03-25T03:06:19.161Z,0.30
2023-03-25T03:09:38.642Z,0.50
2023-03-25T03:12:47.598Z,0.40
2023-03-25T03:15:45.563Z,0.37
2023-03-25T03:18:45.004Z,0.43
2023-03-25T03:21:39.071Z,0.43
2023-03-25T03:24:31.155Z,0.60
2023-03-25T03:27:28.952Z,0.73
2023-03-25T03:30:23.884Z,0.37
2023-03-25T03:33:21.975Z,0.40
2023-03-25T03:36:14.110Z,0.60
2023-03-25T03:39:09.734Z,0.30
2023-03-25T03:42:05.063Z,0.50
2023-03-25T03:44:58.026Z,0.40
2023-03-25T03:47:51.587Z,0.60
2023-03-25T03:50:50.428Z,0.40
2023-03-25T03:53:42.395Z,0.70
2023-03-25T03:56:37.521Z,0.40
2023-03-25T03:59:35.028Z,0.83
2023-03-25T04:02:29.313Z,0.60
2023-03-25T04:05:24.072Z,0.63
2023-03-25T04:08:17.332Z,0.60
2023-03-25T04:11:12.215Z,0.60
2023-03-25T04:14:04.969Z,0.77
2023-03-25T04:16:53.507Z,0.60
2023-03-25T04:19:49.571Z,0.73
2023-03-25T04:22:39.050Z,0.50
2023-03-25T04:25:27.551Z,0.87
2023-03-25T04:28:18.919Z,0.77
2023-03-25T04:31:15.777Z,1.00
2023-03-25T04:34:04.800Z,0.60
2023-03-25T04:36:52.725Z,0.77
2023-03-25T04:39:42.165Z,0.80
2023-03-25T04:42:33.098Z,0.43
2023-03-25T04:45:21.867Z,0.60
2023-03-25T04:48:20.109Z,0.70
2023-03-25T04:51:10.334Z,0.67
2023-03-25T04:53:58.828Z,0.73
2023-03-25T04:56:52.012Z,0.80
2023-03-25T04:59:40.597Z,0.80
2023-03-25T05:02:29.051Z,1.27
2023-03-25T05:05:20.751Z,0.50
2023-03-25T05:08:09.033Z,0.60
2023-03-25T05:11:00.256Z,0.97
2023-03-25T05:13:48.920Z,0.40
2023-03-25T05:16:37.306Z,0.50
2023-03-25T05:19:24.963Z,0.40
2023-03-25T05:22:13.491Z,0.20
2023-03-25T05:25:02.757Z,0.20
2023-03-25T05:27:50.752Z,0.53
2023-03-25T05:30:41.986Z,0.20
2023-03-25T05:33:30.154Z,0.20
2023-03-25T05:36:18.052Z,0.30
2023-03-25T05:39:07.006Z,0.30
2023-03-25T05:41:55.983Z,0.37
2023-03-25T05:44:52.124Z,0.27
2023-03-25T05:47:42.663Z,0.13
2023-03-25T05:50:31.932Z,0.17
2023-03-25T05:53:23.841Z,0.30
2023-03-25T05:56:14.742Z,0.20
2023-03-25T05:59:04.120Z,0.20
2023-03-25T06:01:52.590Z,0.20
2023-03-25T06:04:43.175Z,0.20
2023-03-25T06:07:31.520Z,0.20
2023-03-25T06:10:20.182Z,0.20
2023-03-25T06:13:09.396Z,0.20
2023-03-25T06:19:28.037Z,0.20
2023-03-25T06:22:15.614Z,0.20
2023-03-25T06:25:04.065Z,0.20
2023-03-25T06:27:56.285Z,0.20
2023-03-25T06:30:44.729Z,0.30
2023-03-25T06:33:42.789Z,0.40
2023-03-25T06:36:35.200Z,0.30
2023-03-25T06:39:23.901Z,0.30
2023-03-25T06:42:12.569Z,0.57
2023-03-25T06:45:05.559Z,0.20
2023-03-25T06:47:57.117Z,0.40
2023-03-25T06:50:47.806Z,0.53
2023-03-25T06:53:36.901Z,0.40
2023-03-25T06:56:27.909Z,0.37
2023-03-25T06:59:19.005Z,0.37
2023-03-25T07:02:06.861Z,0.73
2023-03-25T07:04:55.397Z,0.60
2023-03-25T07:07:43.615Z,0.70
2023-03-25T07:10:33.521Z,0.70
2023-03-25T07:13:21.550Z,0.30
2023-03-25T07:16:14.617Z,0.77
2023-03-25T07:19:02.933Z,0.60
2023-03-25T07:21:50.318Z,0.53
2023-03-25T07:24:37.775Z,0.60
2023-03-25T07:27:27.243Z,0.50
2023-03-25T07:30:14.904Z,0.40
2023-03-25T07:33:03.051Z,0.53
2023-03-25T07:35:50.719Z,0.40
2023-03-25T07:38:41.115Z,0.50
2023-03-25T07:41:28.582Z,0.60
2023-03-25T07:44:20.456Z,0.57
2023-03-25T07:47:08.013Z,0.47
2023-03-25T07:49:55.818Z,0.60
2023-03-25T07:52:44.290Z,0.67
2023-03-25T07:55:32.118Z,0.70
2023-03-25T07:58:19.921Z,0.40
2023-03-25T08:01:09.078Z,0.40
2023-03-25T08:03:56.019Z,0.70
2023-03-25T08:06:43.496Z,0.70
2023-03-25T08:09:30.940Z,0.73
2023-03-25T08:12:18.628Z,0.60
2023-03-25T08:15:06.779Z,0.50
2023-03-25T08:17:55.800Z,0.53
2023-03-25T08:20:43.370Z,0.50
2023-03-25T08:23:30.744Z,0.70
2023-03-25T08:26:17.940Z,0.50
2023-03-25T08:29:05.467Z,0.50
2023-03-25T08:31:53.134Z,0.33
2023-03-25T08:34:41.499Z,0.53
2023-03-25T08:37:30.885Z,0.40
2023-03-25T08:40:18.359Z,0.40
2023-03-25T08:43:08.181Z,0.30
2023-03-25T08:45:57.621Z,0.30
2023-03-25T08:48:45.309Z,0.40
2023-03-25T08:51:33.891Z,0.30
2023-03-25T08:54:20.838Z,0.20
2023-03-25T08:57:08.223Z,0.20
2023-03-25T08:59:55.365Z,0.20
2023-03-25T09:02:43.247Z,0.20
2023-03-25T09:05:30.371Z,0.20
2023-03-25T09:08:19.260Z,0.30
2023-03-25T09:11:06.900Z,0.20
2023-03-25T09:13:54.658Z,0.20
2023-03-25T09:16:42.821Z,0.20
2023-03-25T09:19:30.785Z,0.23
2023-03-25T09:22:18.146Z,0.27
2023-03-25T09:25:08.728Z,0.30
2023-03-25T09:27:56.389Z,0.23
2023-03-25T09:30:46.598Z,0.40
2023-03-25T09:33:33.779Z,0.40
2023-03-25T09:36:21.157Z,0.53
2023-03-25T09:39:08.704Z,0.57
2023-03-25T09:42:30.895Z,0.30
2023-03-25T09:45:32.154Z,0.30
2023-03-25T09:48:28.838Z,0.23
2023-03-25T09:51:20.548Z,0.20
2023-03-25T09:54:19.900Z,0.20
2023-03-25T09:57:10.130Z,0.30
2023-03-25T10:00:01.817Z,0.20
2023-03-25T10:02:56.412Z,0.30
2023-03-25T10:06:18.828Z,0.20
2023-03-25T10:09:24.027Z,0.20
2023-03-25T10:12:23.804Z,0.20
2023-03-25T10:15:26.659Z,0.50
2023-03-25T10:18:44.979Z,0.30
2023-03-25T10:21:41.361Z,0.27
2023-03-25T10:24:33.126Z,0.20
2023-03-25T10:27:24.241Z,0.40
2023-03-25T10:30:15.936Z,0.40
2023-03-25T10:33:08.868Z,0.40
2023-03-25T10:36:00.244Z,0.37
2023-03-25T10:38:49.586Z,0.40
2023-03-25T10:41:40.282Z,0.33
2023-03-25T10:44:29.123Z,0.60
2023-03-25T10:47:20.738Z,0.70
2023-03-25T10:50:16.988Z,0.60
2023-03-25T10:53:07.096Z,0.53
2023-03-25T10:55:59.784Z,0.67
2023-03-25T10:58:51.830Z,0.67
2023-03-25T11:01:41.308Z,0.60
2023-03-25T11:04:35.415Z,0.40
2023-03-25T11:07:27.956Z,0.63
2023-03-25T11:10:21.798Z,0.73
2023-03-25T11:13:16.716Z,0.40
2023-03-25T11:16:05.664Z,0.63
2023-03-25T11:18:54.319Z,0.67
2023-03-25T11:21:41.566Z,0.87
2023-03-25T11:24:34.522Z,0.60
2023-03-25T11:27:25.073Z,0.67
2023-03-25T11:30:18.786Z,0.90
2023-03-25T11:33:12.900Z,0.80
2023-03-25T11:36:12.716Z,0.60
2023-03-25T11:39:04.600Z,0.60
2023-03-25T11:41:54.062Z,0.50
2023-03-25T11:44:41.504Z,0.40
2023-03-25T11:47:33.001Z,0.30
2023-03-25T11:50:23.936Z,0.80
2023-03-25T11:53:18.459Z,0.80
2023-03-25T11:56:09.205Z,0.67
2023-03-25T11:59:01.236Z,1.00
2023-03-25T12:01:50.360Z,0.47
2023-03-25T12:04:39.930Z,0.30
2023-03-25T12:07:27.284Z,0.30
2023-03-25T12:10:20.423Z,0.30
2023-03-25T12:13:13.815Z,0.27
2023-03-25T12:16:19.437Z,0.40
2023-03-25T12:19:14.183Z,0.30
2023-03-25T12:22:18.275Z,0.40
2023-03-25T12:25:15.491Z,0.50
2023-03-25T12:28:42.908Z,0.50
2023-03-25T12:31:46.723Z,0.63
2023-03-25T12:34:50.500Z,0.60
2023-03-25T12:37:49.464Z,0.70
2023-03-25T12:40:51.302Z,0.47
2023-03-25T12:43:51.659Z,0.70
2023-03-25T12:47:05.501Z,0.57
2023-03-25T12:50:16.936Z,0.50
2023-03-25T12:53:22.290Z,0.50
2023-03-25T12:56:21.110Z,0.67
2023-03-25T12:59:28.985Z,0.40
2023-03-25T13:02:29.700Z,0.30
2023-03-25T13:05:23.260Z,0.57
2023-03-25T13:08:17.514Z,0.60
2023-03-25T13:11:09.151Z,0.50
2023-03-25T13:14:00.155Z,0.50
2023-03-25T13:16:50.237Z,0.50
2023-03-25T13:19:42.810Z,0.70
2023-03-25T13:22:36.516Z,0.60
2023-03-25T13:25:27.748Z,0.83
2023-03-25T13:29:24.113Z,0.60
2023-03-25T13:32:15.031Z,0.60
2023-03-25T13:35:09.127Z,0.60
2023-03-25T13:38:03.618Z,0.50
2023-03-25T13:41:03.166Z,0.70
2023-03-25T13:43:57.906Z,0.60
2023-03-25T13:46:48.538Z,0.73
2023-03-25T13:49:43.112Z,0.57
2023-03-25T13:52:44.182Z,0.50
2023-03-25T13:55:35.539Z,0.50
2023-03-25T13:58:55.312Z,0.60
2023-03-25T14:02:08.929Z,0.50
2023-03-25T14:05:34.778Z,0.73
2023-03-25T14:09:05.442Z,0.60
2023-03-25T14:12:00.210Z,0.40
2023-03-25T14:14:51.459Z,0.40
2023-03-25T14:17:54.120Z,0.60
2023-03-25T14:21:01.111Z,0.40
2023-03-25T14:24:06.344Z,0.70
2023-03-25T14:26:58.544Z,0.70
2023-03-25T14:29:48.767Z,0.63
2023-03-25T14:32:38.071Z,0.57
2023-03-25T14:35:53.740Z,0.80
2023-03-25T14:38:56.694Z,1.07
2023-03-25T14:42:03.427Z,0.87
2023-03-25T14:44:54.781Z,0.40
2023-03-25T14:47:53.144Z,0.73
2023-03-25T14:50:41.116Z,0.70
2023-03-25T14:53:29.049Z,1.07
2023-03-25T14:56:20.976Z,0.80
2023-03-25T14:59:19.125Z,1.13
2023-03-25T15:02:12.165Z,0.63
2023-03-25T15:05:06.387Z,0.80
2023-03-25T15:07:59.288Z,0.80
2023-03-25T15:10:53.102Z,0.83
2023-03-25T15:13:46.831Z,0.90
2023-03-25T15:16:40.698Z,0.63
2023-03-25T15:19:28.326Z,0.53
2023-03-25T15:22:23.730Z,0.63
2023-03-25T15:25:19.063Z,0.83
2023-03-25T15:28:16.210Z,0.83
2023-03-25T15:31:26.157Z,0.80
2023-03-25T15:34:50.620Z,0.67
2023-03-25T15:38:15.452Z,1.07
2023-03-25T15:41:26.407Z,0.70
2023-03-25T15:44:36.296Z,0.80
2023-03-25T15:47:41.959Z,0.73
2023-03-25T15:50:45.973Z,0.53
2023-03-25T15:53:51.422Z,1.00
2023-03-25T15:56:43.929Z,1.00
2023-03-25T15:59:39.620Z,0.70
2023-03-25T16:02:32.716Z,0.90
2023-03-25T16:05:21.460Z,1.00
2023-03-25T16:08:13.164Z,0.57
2023-03-25T16:11:24.514Z,0.47
2023-03-25T16:14:14.650Z,0.87
2023-03-25T16:17:04.380Z,0.70
2023-03-25T16:19:55.284Z,0.30
2023-03-25T16:22:45.759Z,0.53
2023-03-25T16:25:38.097Z,0.47
2023-03-25T16:28:29.570Z,0.40
2023-03-25T16:31:34.443Z,0.50
2023-03-25T16:34:22.496Z,0.47
2023-03-25T16:37:12.395Z,0.40
2023-03-25T16:40:00.107Z,0.80
2023-03-25T16:42:49.763Z,0.47
2023-03-25T16:45:37.566Z,0.50
2023-03-25T16:48:29.707Z,0.93
2023-03-25T16:51:19.636Z,0.40
2023-03-25T16:54:11.804Z,0.80
2023-03-25T16:56:59.404Z,0.70
2023-03-25T16:59:49.647Z,0.50
2023-03-25T17:02:42.421Z,0.77
2023-03-25T17:05:31.395Z,0.90
2023-03-25T17:08:21.424Z,0.90
2023-03-25T17:11:10.468Z,0.70
2023-03-25T17:14:02.541Z,0.50
2023-03-25T17:16:54.213Z,0.60
2023-03-25T17:19:47.083Z,1.33
2023-03-25T17:22:36.160Z,0.70
2023-03-25T17:25:28.671Z,0.47
2023-03-25T17:28:28.805Z,1.17
2023-03-25T17:31:26.342Z,0.73
2023-03-25T17:34:20.141Z,1.13
2023-03-25T17:37:09.675Z,0.90
2023-03-25T17:39:57.578Z,0.60
2023-03-25T17:42:46.238Z,0.93
2023-03-25T17:45:33.910Z,0.87
2023-03-25T17:48:23.219Z,0.93
2023-03-25T17:51:14.733Z,0.67
2023-03-25T17:54:02.121Z,1.47
2023-03-25T17:56:49.413Z,0.80
2023-03-25T17:59:38.927Z,0.60
2023-03-25T18:02:26.404Z,0.60
2023-03-25T18:05:13.593Z,0.50
2023-03-25T18:08:03.437Z,0.63
2023-03-25T18:10:51.853Z,0.80
2023-03-25T18:13:45.756Z,0.90
2023-03-25T18:16:33.108Z,0.70
2023-03-25T18:19:21.858Z,1.00
2023-03-25T18:22:19.785Z,0.70
2023-03-25T18:25:10.175Z,0.73
2023-03-25T18:27:58.756Z,0.70
2023-03-25T18:30:49.376Z,1.10
2023-03-25T18:33:36.448Z,0.80
2023-03-25T18:36:24.014Z,0.97
2023-03-25T18:39:15.055Z,0.73
2023-03-25T18:42:03.808Z,0.77
2023-03-25T18:44:52.575Z,1.10
2023-03-25T18:47:39.957Z,0.73
2023-03-25T18:50:29.885Z,0.50
2023-03-25T18:53:17.116Z,0.97
2023-03-25T18:56:04.991Z,0.80
2023-03-25T18:58:53.863Z,1.00
2023-03-25T19:01:41.122Z,1.00
2023-03-25T19:04:29.638Z,0.97
2023-03-25T19:07:16.907Z,0.87
2023-03-25T19:10:04.358Z,1.10
2023-03-25T19:12:52.824Z,0.83
2023-03-25T19:15:41.966Z,0.60
2023-03-25T19:18:32.919Z,0.90
2023-03-25T19:21:20.882Z,1.17
2023-03-25T19:24:08.324Z,1.37
2023-03-25T19:26:55.532Z,0.97
2023-03-25T19:29:42.869Z,0.60
2023-03-25T19:32:31.373Z,0.90
2023-03-25T19:35:20.914Z,0.60
2023-03-25T19:38:08.629Z,0.60
2023-03-25T19:41:04.797Z,1.00
2023-03-25T19:43:51.747Z,0.70
2023-03-25T19:46:39.393Z,0.60
2023-03-25T19:49:39.432Z,0.73
2023-03-25T19:52:27.754Z,0.50
2023-03-25T19:55:15.397Z,1.00
2023-03-25T19:58:02.513Z,0.90
2023-03-25T20:00:49.600Z,0.87
2023-03-25T20:03:38.603Z,0.53
2023-03-25T20:06:27.434Z,0.80
2023-03-25T20:09:14.655Z,0.90
2023-03-25T20:12:01.875Z,1.00
2023-03-25T20:14:49.308Z,1.00
2023-03-25T20:17:36.494Z,0.80
2023-03-25T20:20:24.953Z,0.80
2023-03-25T20:23:13.682Z,0.73
2023-03-25T20:26:01.867Z,0.67
2023-03-25T20:28:49.566Z,1.07
2023-03-25T20:31:36.728Z,0.93
2023-03-25T20:34:23.815Z,0.50
2023-03-25T20:37:10.862Z,0.80
2023-03-25T20:39:59.619Z,1.00
2023-03-25T20:42:48.298Z,1.03
2023-03-25T20:45:35.559Z,0.90
2023-03-25T20:48:22.620Z,0.93
2023-03-25T20:51:11.847Z,0.70
2023-03-25T20:53:58.775Z,0.70
2023-03-25T20:56:47.707Z,1.20
2023-03-25T20:59:34.878Z,1.37
2023-03-25T21:02:22.225Z,0.70
2023-03-25T21:05:09.915Z,0.93
2023-03-25T21:07:57.795Z,0.90
2023-03-25T21:10:49.098Z,1.07
2023-03-25T21:13:37.528Z,0.90
2023-03-25T21:16:24.942Z,0.70
2023-03-25T21:19:12.867Z,0.93
2023-03-25T21:21:59.914Z,0.60
2023-03-25T21:24:46.851Z,1.00
2023-03-25T21:27:37.851Z,0.90
2023-03-25T21:30:31.295Z,1.27
2023-03-25T21:33:18.538Z,1.00
2023-03-25T21:36:07.217Z,1.00
2023-03-25T21:38:57.722Z,0.63
2023-03-25T21:41:45.556Z,0.83
2023-03-25T21:44:32.847Z,1.07
2023-03-25T21:47:22.479Z,0.63
2023-03-25T21:50:11.800Z,0.93
2023-03-25T21:53:03.384Z,0.90
2023-03-25T21:55:55.522Z,0.93
2023-03-25T21:58:43.260Z,0.90
2023-03-25T22:01:31.793Z,0.80
2023-03-25T22:04:20.449Z,0.83
2023-03-25T22:07:07.911Z,0.80
2023-03-25T22:09:54.971Z,1.10
2023-03-25T22:12:42.430Z,1.07
2023-03-25T22:15:32.883Z,1.20
2023-03-25T22:18:20.041Z,1.10
2023-03-25T22:21:10.782Z,0.90
2023-03-25T22:23:59.911Z,0.97
2023-03-25T22:26:47.194Z,1.20
2023-03-25T22:29:34.007Z,1.23
2023-03-25T22:32:21.450Z,1.27
2023-03-25T22:35:09.255Z,1.40
2023-03-25T22:37:57.942Z,0.83
2023-03-25T22:40:45.149Z,1.00
2023-03-25T22:43:32.746Z,1.30
2023-03-25T22:46:20.684Z,1.07
2023-03-25T22:49:07.581Z,1.00
2023-03-25T22:51:55.691Z,0.90
2023-03-25T22:54:44.855Z,0.90
2023-03-25T22:57:32.112Z,0.80
2023-03-25T23:00:19.497Z,0.80
2023-03-25T23:03:08.557Z,1.00
2023-03-25T23:05:58.424Z,1.20
2023-03-25T23:08:48.151Z,1.70
2023-03-25T23:11:38.010Z,1.00
2023-03-25T23:14:25.343Z,1.30
2023-03-25T23:17:12.935Z,1.37
2023-03-25T23:20:00.214Z,1.03
2023-03-25T23:22:47.264Z,1.00
2023-03-25T23:25:34.397Z,1.30
2023-03-25T23:28:23.172Z,0.97
2023-03-25T23:31:12.050Z,1.80
2023-03-25T23:34:02.367Z,0.97
2023-03-25T23:36:50.119Z,1.30
2023-03-25T23:39:40.447Z,1.17
2023-03-25T23:42:34.876Z,0.93
2023-03-25T23:45:30.314Z,1.00
2023-03-25T23:48:17.308Z,0.97
2023-03-25T23:51:05.218Z,1.10
2023-03-25T23:53:53.520Z,1.00
2023-03-25T23:56:42.174Z,1.57
2023-03-25T23:59:29.282Z,1.00
